Time;durP1;ratioP1;P1;durP2;ratioP2;P2;SDS_P1;SDS_P2;PMS_P1;PMS_P2;Temp;Humidity;BMP_temperature;BMP_pressure;BME280_temperature;BME280_humidity;BME280_pressure;Samples;Min_cycle;Max_cycle;Signal;HPM_P1;HPM_P2
2023/09/28 00:01:49;;;;;;;12.85;10.40;;;;;;;15.27;100.00;100439.44;4981871;28;20049;-77
2023/09/28 00:04:17;;;;;;;11.00;9.80;;;;;;;15.35;100.00;100445.13;4979015;28;20046;-76
2023/09/28 00:06:45;;;;;;;16.23;11.05;;;;;;;15.39;100.00;100431.50;4985328;28;20054;-75
2023/09/28 00:09:14;;;;;;;14.20;10.70;;;;;;;15.46;100.00;100429.25;4969220;28;20077;-76
2023/09/28 00:11:42;;;;;;;14.35;10.93;;;;;;;15.40;100.00;100441.22;4975125;28;20694;-76
2023/09/28 00:14:14;;;;;;;12.65;11.25;;;;;;;15.34;100.00;100436.28;4958957;28;20038;-75
2023/09/28 00:16:42;;;;;;;14.05;10.65;;;;;;;15.35;100.00;100439.78;4960770;28;20046;-77
2023/09/28 00:19:10;;;;;;;11.82;10.05;;;;;;;15.24;100.00;100418.31;4979075;28;20519;-75
2023/09/28 00:21:39;;;;;;;12.02;10.80;;;;;;;15.29;100.00;100434.84;4974886;28;20125;-75
2023/09/28 00:24:09;;;;;;;13.03;10.97;;;;;;;15.22;100.00;100439.75;4976295;28;20043;-75
2023/09/28 00:26:38;;;;;;;15.40;11.77;;;;;;;15.17;100.00;100435.66;4992552;28;20564;-76
2023/09/28 00:29:06;;;;;;;12.82;11.25;;;;;;;15.21;100.00;100445.19;4963536;28;20415;-76
2023/09/28 00:31:35;;;;;;;16.73;12.65;;;;;;;15.16;100.00;100445.47;4965327;28;20046;-76
2023/09/28 00:34:03;;;;;;;16.70;11.30;;;;;;;15.10;100.00;100443.22;4992432;28;20153;-77
2023/09/28 00:36:33;;;;;;;13.73;11.32;;;;;;;15.08;100.00;100450.47;4993124;28;20052;-76
2023/09/28 00:39:03;;;;;;;14.73;11.85;;;;;;;15.04;100.00;100446.28;4954488;28;21553;-77
2023/09/28 00:41:30;;;;;;;13.23;11.27;;;;;;;14.98;100.00;100426.19;4995684;28;20050;-77
2023/09/28 00:44:00;;;;;;;14.38;11.32;;;;;;;14.99;100.00;100433.22;4998475;28;20075;-76
2023/09/28 00:46:31;;;;;;;13.02;10.73;;;;;;;14.98;100.00;100447.50;4955738;28;20114;-77
2023/09/28 00:49:05;;;;;;;14.32;11.45;;;;;;;14.94;100.00;100440.69;4996000;28;20065;-78
2023/09/28 00:51:33;;;;;;;13.70;11.07;;;;;;;14.91;100.00;100432.03;4979848;28;20050;-77
2023/09/28 00:54:05;;;;;;;14.23;11.38;;;;;;;14.85;100.00;100419.94;4988615;28;20161;-76
2023/09/28 00:56:32;;;;;;;14.25;10.90;;;;;;;14.93;100.00;100454.13;4980014;28;20054;-77
2023/09/28 00:59:01;;;;;;;14.50;11.30;;;;;;;14.89;100.00;100453.44;4985097;28;20078;-78
2023/09/28 01:01:29;;;;;;;13.13;10.80;;;;;;;14.90;100.00;100444.50;4948509;28;20057;-77
2023/09/28 01:04:01;;;;;;;17.75;11.48;;;;;;;14.93;100.00;100417.66;4985357;28;20050;-77
2023/09/28 01:06:30;;;;;;;13.60;10.60;;;;;;;15.04;100.00;100430.28;4998766;28;20145;-78
2023/09/28 01:09:00;;;;;;;;;;;;;;;15.01;100.00;100431.31;4970135;28;20077;-76
2023/09/28 01:11:28;;;;;;;15.90;11.57;;;;;;;14.97;100.00;100427.13;4970072;28;20321;-76
2023/09/28 01:13:57;;;;;;;14.77;12.38;;;;;;;14.94;100.00;100426.50;4991734;28;20046;-76
2023/09/28 01:16:26;;;;;;;17.35;12.38;;;;;;;14.92;100.00;100437.25;5002995;28;20062;-77
2023/09/28 01:18:55;;;;;;;14.68;11.07;;;;;;;14.93;100.00;100443.44;4972469;28;20051;-77
2023/09/28 01:21:25;;;;;;;14.07;11.40;;;;;;;14.92;100.00;100463.06;5009194;28;20042;-76
2023/09/28 01:23:57;;;;;;;15.65;12.80;;;;;;;14.87;100.00;100462.50;4963093;28;20046;-77
2023/09/28 01:26:27;;;;;;;13.02;11.70;;;;;;;14.89;100.00;100453.44;4993847;28;20054;-76
2023/09/28 01:28:56;;;;;;;13.73;12.23;;;;;;;14.96;100.00;100451.22;4981368;28;20042;-76
2023/09/28 01:31:24;;;;;;;15.65;12.52;;;;;;;14.98;100.00;100446.66;4972821;28;20046;-77
2023/09/28 01:33:51;;;;;;;14.68;11.93;;;;;;;15.03;100.00;100447.22;4978991;28;20522;-78
2023/09/28 01:36:19;;;;;;;12.57;10.85;;;;;;;15.05;100.00;100450.66;5004634;28;20060;-76
2023/09/28 01:38:52;;;;;;;16.60;11.18;;;;;;;15.05;100.00;100450.66;4963173;28;20065;-75
2023/09/28 01:41:20;;;;;;;15.82;12.25;;;;;;;15.08;100.00;100448.66;4980514;28;20507;-75
2023/09/28 01:43:51;;;;;;;16.10;12.10;;;;;;;15.06;100.00;100442.56;4982477;28;20072;-75
2023/09/28 01:46:18;;;;;;;13.43;11.60;;;;;;;15.11;100.00;100452.91;5007755;28;20053;-76
2023/09/28 01:48:47;;;;;;;12.13;10.80;;;;;;;15.12;100.00;100446.63;5000225;28;20097;-77
2023/09/28 01:51:15;;;;;;;14.05;10.93;;;;;;;15.16;100.00;100436.63;4963224;28;20042;-77
2023/09/28 01:53:43;;;;;;;14.52;11.18;;;;;;;15.21;100.00;100429.19;4955907;28;21382;-76
2023/09/28 01:56:10;;;;;;;13.15;10.93;;;;;;;15.20;100.00;100433.66;4996786;28;20561;-77
2023/09/28 01:58:41;;;;;;;11.50;9.95;;;;;;;15.20;100.00;100441.66;4984037;28;20053;-76
2023/09/28 02:01:08;;;;;;;12.88;10.18;;;;;;;15.20;100.00;100440.81;4967114;28;20509;-77
2023/09/28 02:03:36;;;;;;;14.05;11.00;;;;;;;15.21;100.00;100448.72;4979278;28;20131;-77
2023/09/28 02:06:04;;;;;;;15.57;11.95;;;;;;;15.09;100.00;100431.69;4982050;28;20076;-76
2023/09/28 02:08:34;;;;;;;12.52;10.52;;;;;;;15.16;100.00;100452.63;4982556;28;20042;-77
2023/09/28 02:11:01;;;;;;;13.18;11.35;;;;;;;15.11;100.00;100446.75;4983203;28;20459;-77
2023/09/28 02:13:30;;;;;;;12.32;10.60;;;;;;;15.08;100.00;100451.31;4978610;28;20050;-77
2023/09/28 02:15:59;;;;;;;12.52;10.60;;;;;;;15.03;100.00;100450.75;4978796;28;20053;-76
2023/09/28 02:18:27;;;;;;;12.48;9.90;;;;;;;15.06;100.00;100450.56;4974040;28;20047;-76
2023/09/28 02:20:58;;;;;;;11.38;9.65;;;;;;;15.07;100.00;100451.41;4970137;28;20042;-77
2023/09/28 02:23:28;;;;;;;12.85;10.38;;;;;;;15.03;100.00;100466.75;4978943;28;20050;-75
2023/09/28 02:25:57;;;;;;;11.98;10.02;;;;;;;15.02;100.00;100470.38;4959876;28;20039;-77
2023/09/28 02:28:25;;;;;;;10.97;9.70;;;;;;;15.03;100.00;100471.22;4957555;28;20110;-76
2023/09/28 02:30:52;;;;;;;12.25;10.38;;;;;;;15.04;100.00;100465.81;4968255;28;20458;-77
2023/09/28 02:33:25;;;;;;;14.13;9.90;;;;;;;15.00;100.00;100463.41;4981662;28;20034;-76
2023/09/28 02:35:53;;;;;;;13.48;9.73;;;;;;;15.07;100.00;100470.94;4977541;28;20054;-77
2023/09/28 02:38:20;;;;;;;12.07;9.95;;;;;;;15.03;100.00;100450.75;4981260;28;20168;-77
2023/09/28 02:40:49;;;;;;;14.35;10.70;;;;;;;15.19;100.00;100452.41;4965692;28;20061;-77
2023/09/28 02:43:18;;;;;;;13.35;11.00;;;;;;;15.31;100.00;100444.47;4991564;28;20042;-76
2023/09/28 02:45:46;;;;;;;14.48;10.52;;;;;;;15.38;100.00;100440.44;4985611;28;20047;-76
2023/09/28 02:48:18;;;;;;;14.40;10.35;;;;;;;15.42;100.00;100423.25;4970033;28;20065;-77
2023/09/28 02:50:48;;;;;;;12.25;10.00;;;;;;;15.47;100.00;100424.78;4956163;28;20069;-76
2023/09/28 02:53:15;;;;;;;13.93;9.95;;;;;;;15.50;100.00;100437.91;4996578;28;20041;-76
2023/09/28 02:55:44;;;;;;;14.10;11.80;;;;;;;15.47;100.00;100468.31;4977786;28;20053;-78
2023/09/28 02:58:13;;;;;;;16.75;11.65;;;;;;;15.46;100.00;100487.97;4991494;28;20061;-76
2023/09/28 03:00:42;;;;;;;14.50;12.05;;;;;;;15.47;100.00;100500.34;4983866;28;20133;-77
2023/09/28 03:03:10;;;;;;;13.73;11.02;;;;;;;15.47;100.00;100492.34;4967282;28;20601;-76
2023/09/28 03:05:39;;;;;;;12.23;10.52;;;;;;;15.43;100.00;100491.69;4963785;28;20042;-76
2023/09/28 03:08:09;;;;;;;15.48;11.38;;;;;;;15.33;100.00;100481.72;4988424;28;20046;-76
2023/09/28 03:10:41;;;;;;;16.33;11.57;;;;;;;15.34;100.00;100510.13;4972946;28;20133;-77
2023/09/28 03:13:08;;;;;;;16.90;11.40;;;;;;;15.28;100.00;100515.84;4970354;28;20062;-77
2023/09/28 03:15:39;;;;;;;13.35;10.77;;;;;;;15.23;100.00;100509.97;4960185;28;20538;-76
2023/09/28 03:18:09;;;;;;;19.13;11.70;;;;;;;15.21;100.00;100509.19;4991498;28;20046;-77
2023/09/28 03:20:43;;;;;;;11.60;10.30;;;;;;;15.25;100.00;100511.59;4990943;28;20046;-78
2023/09/28 03:23:12;;;;;;;15.48;11.10;;;;;;;15.30;100.00;100516.59;4976538;28;20501;-77
2023/09/28 03:25:42;;;;;;;13.63;10.18;;;;;;;15.33;100.00;100516.41;4992886;28;20106;-78
2023/09/28 03:28:11;;;;;;;12.50;10.33;;;;;;;15.37;100.00;100507.25;4986034;28;20515;-74
2023/09/28 03:30:40;;;;;;;12.43;10.00;;;;;;;15.37;100.00;100499.25;4972534;28;20477;-78
2023/09/28 03:33:07;;;;;;;14.82;10.68;;;;;;;15.41;100.00;100500.78;4968235;28;20054;-76
2023/09/28 03:35:38;;;;;;;12.23;9.40;;;;;;;15.34;100.00;100483.44;4994794;28;20062;-76
2023/09/28 03:38:07;;;;;;;;;;;;;;;15.44;100.00;100490.72;4983585;28;20042;-77
2023/09/28 03:40:43;;;;;;;12.32;9.60;;;;;;;15.45;100.00;100484.44;4961039;28;20388;-77
2023/09/28 03:43:16;;;;;;;13.27;10.00;;;;;;;15.45;100.00;100479.09;4972912;28;20038;-76
2023/09/28 03:45:45;;;;;;;12.43;10.35;;;;;;;15.50;100.00;100492.16;4960882;28;20602;-77
2023/09/28 03:48:26;;;;;;;13.60;9.93;;;;;;;15.49;100.00;100493.09;4975015;28;20045;-76
2023/09/28 03:50:54;;;;;;;16.98;11.68;;;;;;;15.39;100.00;100478.66;4964531;28;20050;-76
2023/09/28 03:53:25;;;;;;;13.25;11.10;;;;;;;15.52;100.00;100494.72;4990953;28;20049;-75
2023/09/28 03:55:55;;;;;;;19.08;11.10;;;;;;;15.53;100.00;100478.63;4989930;28;20050;-77
2023/09/28 03:58:24;;;;;;;14.18;10.80;;;;;;;15.52;100.00;100473.38;4982184;28;20058;-77
2023/09/28 04:00:58;;;;;;;14.32;10.27;;;;;;;15.52;100.00;100476.03;4968668;28;20237;-76
2023/09/28 04:03:30;;;;;;;13.15;10.57;;;;;;;15.47;100.00;100470.13;4993253;28;20046;-77
2023/09/28 04:05:59;;;;;;;17.48;10.02;;;;;;;15.49;100.00;100494.91;4983823;28;20050;-75
2023/09/28 04:08:29;;;;;;;12.23;9.98;;;;;;;15.45;100.00;100504.94;4990562;28;20065;-75
2023/09/28 04:11:01;;;;;;;;;;;;;;;15.38;100.00;100501.81;4966087;28;20083;-76
2023/09/28 04:13:31;;;;;;;12.95;9.95;;;;;;;15.32;100.00;100504.03;4995263;28;19929;-76
2023/09/28 04:16:00;;;;;;;13.98;10.30;;;;;;;15.24;100.00;100498.34;4986412;28;20050;-74
2023/09/28 04:18:29;;;;;;;12.80;10.68;;;;;;;15.21;100.00;100509.19;4988708;28;20045;-77
2023/09/28 04:20:57;;;;;;;12.65;9.90;;;;;;;15.16;100.00;100500.63;4989157;28;20306;-77
2023/09/28 04:23:25;;;;;;;14.05;9.50;;;;;;;15.08;100.00;100512.66;4972558;28;20086;-77
2023/09/28 04:25:55;;;;;;;11.82;9.82;;;;;;;15.03;100.00;100513.91;4988968;28;20053;-77
2023/09/28 04:28:25;;;;;;;13.02;9.93;;;;;;;15.02;100.00;100507.72;4997256;28;20042;-77
2023/09/28 04:30:56;;;;;;;12.13;9.63;;;;;;;14.96;100.00;100502.75;4971037;28;20534;-76
2023/09/28 04:33:24;;;;;;;12.02;10.43;;;;;;;14.92;100.00;100511.91;4969839;28;20522;-76
2023/09/28 04:35:52;;;;;;;13.88;9.88;;;;;;;14.81;100.00;100503.72;4991737;28;20054;-76
2023/09/28 04:38:22;;;;;;;11.88;9.95;;;;;;;14.78;100.00;100513.75;4995840;28;20046;-76
2023/09/28 04:40:52;;;;;;;12.30;10.18;;;;;;;14.65;100.00;100503.81;4989368;28;20794;-76
2023/09/28 04:43:21;;;;;;;14.07;10.82;;;;;;;14.54;100.00;100503.63;4975207;28;20038;-77
2023/09/28 04:45:55;;;;;;;12.55;10.55;;;;;;;14.56;100.00;100514.19;4980556;28;20042;-75
2023/09/28 04:48:23;;;;;;;14.38;10.23;;;;;;;14.53;100.00;100511.72;4986605;28;20058;-75
2023/09/28 04:50:52;;;;;;;11.35;9.60;;;;;;;14.54;100.00;100522.28;4972848;28;20129;-76
2023/09/28 04:53:20;;;;;;;11.20;9.48;;;;;;;14.50;100.00;100510.09;4987805;28;20046;-77
2023/09/28 04:55:49;;;;;;;11.43;9.20;;;;;;;14.47;100.00;100510.31;4984070;28;20057;-75
2023/09/28 04:58:17;;;;;;;11.27;9.68;;;;;;;14.40;100.00;100511.63;4997540;28;20042;-76
2023/09/28 05:00:45;;;;;;;13.50;10.15;;;;;;;14.42;100.00;100522.19;4959378;28;20091;-77
2023/09/28 05:03:16;;;;;;;12.98;10.10;;;;;;;14.43;100.00;100539.88;4977587;28;20031;-76
2023/09/28 05:05:44;;;;;;;15.80;10.93;;;;;;;14.33;100.00;100535.06;4994535;28;20069;-77
2023/09/28 05:08:14;;;;;;;15.57;11.40;;;;;;;14.35;100.00;100551.81;4982668;28;20038;-76
2023/09/28 05:10:42;;;;;;;13.98;11.02;;;;;;;14.28;100.00;100545.16;4980523;28;20042;-78
2023/09/28 05:13:10;;;;;;;13.05;11.40;;;;;;;14.28;100.00;100549.63;4969871;28;20080;-76
2023/09/28 05:15:38;;;;;;;12.55;10.50;;;;;;;14.23;100.00;100559.69;4991710;28;20091;-76
2023/09/28 05:18:10;;;;;;;16.08;12.23;;;;;;;14.17;100.00;100568.03;4991817;28;20054;-76
2023/09/28 05:20:41;;;;;;;15.05;12.27;;;;;;;14.13;100.00;100567.38;4976161;28;20042;-77
2023/09/28 05:23:10;;;;;;;15.20;12.13;;;;;;;14.11;100.00;100568.41;4973458;28;20042;-77
2023/09/28 05:25:41;;;;;;;19.08;13.32;;;;;;;14.06;100.00;100560.69;4990093;28;20107;-76
2023/09/28 05:28:10;;;;;;;15.00;12.30;;;;;;;14.02;100.00;100552.00;4968214;28;20046;-76
2023/09/28 05:30:39;;;;;;;17.00;12.27;;;;;;;14.04;100.00;100560.75;5002782;28;20038;-77
2023/09/28 05:33:07;;;;;;;15.52;12.77;;;;;;;14.04;100.00;100558.09;4970191;28;20044;-77
2023/09/28 05:35:35;;;;;;;14.63;12.20;;;;;;;13.98;100.00;100534.53;4989199;28;20042;-76
2023/09/28 05:38:06;;;;;;;18.17;13.18;;;;;;;14.09;100.00;100551.66;4983007;28;20038;-76
2023/09/28 05:40:34;;;;;;;17.10;12.20;;;;;;;14.11;100.00;100550.63;4998994;28;20051;-75
2023/09/28 05:43:04;;;;;;;16.13;12.77;;;;;;;14.11;100.00;100549.78;4983408;28;20073;-77
2023/09/28 05:45:34;;;;;;;18.00;13.50;;;;;;;14.16;100.00;100563.69;4996305;28;20142;-75
2023/09/28 05:48:05;;;;;;;18.25;12.00;;;;;;;14.14;100.00;100557.59;5006960;28;20043;-76
2023/09/28 05:50:34;;;;;;;18.17;13.35;;;;;;;14.16;100.00;100569.88;4989697;28;20845;-75
2023/09/28 05:53:06;;;;;;;15.82;13.25;;;;;;;14.16;100.00;100563.69;4981930;28;20150;-76
2023/09/28 05:55:36;;;;;;;;;;;;;;;14.24;100.00;100567.59;4976460;28;20053;-76
2023/09/28 05:58:04;;;;;;;13.73;12.23;;;;;;;14.32;100.00;100570.63;5001611;28;19932;-75
2023/09/28 06:00:36;;;;;;;19.15;12.75;;;;;;;14.38;100.00;100564.09;4987687;28;20054;-78
2023/09/28 06:03:09;;;;;;;17.00;12.45;;;;;;;14.40;100.00;100572.91;4950583;28;20066;-77
2023/09/28 06:05:41;;;;;;;18.27;13.18;;;;;;;14.41;100.00;100569.28;4972905;28;20045;-76
2023/09/28 06:08:13;;;;;;;15.63;13.00;;;;;;;14.44;100.00;100562.91;4978953;28;20038;-76
2023/09/28 06:10:44;;;;;;;18.55;12.98;;;;;;;14.47;100.00;100568.06;4994851;28;20042;-76
2023/09/28 06:13:18;;;;;;;21.35;13.52;;;;;;;14.45;100.00;100568.16;4969999;28;20549;-75
2023/09/28 06:15:47;;;;;;;24.23;14.57;;;;;;;14.45;100.00;100580.63;4988267;28;20446;-76
2023/09/28 06:18:16;;;;;;;18.60;13.25;;;;;;;14.46;100.00;100577.00;4990995;28;20057;-78
2023/09/28 06:20:46;;;;;;;18.85;13.70;;;;;;;14.50;100.00;100570.53;4963094;28;20567;-76
2023/09/28 06:23:35;;;;;;;25.55;13.98;;;;;;;14.56;100.00;100573.69;4971666;28;20112;-77
2023/09/28 06:26:14;;;;;;;20.15;13.82;;;;;;;14.56;100.00;100573.69;4986132;28;20030;-77
2023/09/28 06:28:57;;;;;;;24.23;13.80;;;;;;;14.59;100.00;100573.50;4996133;28;20046;-75
2023/09/28 06:31:26;;;;;;;23.35;14.52;;;;;;;14.64;100.00;100586.53;4975779;28;20250;-77
2023/09/28 06:33:54;;;;;;;20.02;14.27;;;;;;;14.68;100.00;100580.06;4973276;28;20141;-76
2023/09/28 06:36:25;;;;;;;16.60;12.98;;;;;;;14.74;100.00;100587.72;4987218;28;20530;-77
2023/09/28 06:39:10;;;;;;;17.60;13.95;;;;;;;14.77;100.00;100587.53;4979468;28;20054;-75
2023/09/28 06:41:39;;;;;;;32.03;15.40;;;;;;;14.92;100.00;100583.91;4988359;28;20061;-77
2023/09/28 06:44:09;;;;;;;18.10;15.05;;;;;;;14.97;100.00;100580.94;4970156;28;20043;-77
2023/09/28 06:46:43;;;;;;;18.95;13.57;;;;;;;15.07;100.00;100574.97;4973556;28;20046;-76
2023/09/28 06:49:12;;;;;;;19.95;14.13;;;;;;;15.27;100.00;100586.16;4974667;28;20474;-77
2023/09/28 06:51:42;;;;;;;20.55;14.70;;;;;;;15.48;100.00;100567.94;4955122;28;20050;-77
2023/09/28 06:54:11;;;;;;;22.80;14.77;;;;;;;15.74;100.00;100575.97;4969401;28;20039;-76
2023/09/28 06:56:39;;;;;;;21.20;14.90;;;;;;;15.99;100.00;100580.59;4969954;28;20047;-76
2023/09/28 06:59:08;;;;;;;21.88;14.32;;;;;;;16.34;100.00;100580.88;4972648;28;20046;-78
2023/09/28 07:01:37;;;;;;;21.75;15.00;;;;;;;16.60;100.00;100594.28;4977744;28;20043;-76
2023/09/28 07:04:06;;;;;;;25.15;15.57;;;;;;;16.87;100.00;100589.72;4978335;28;20057;-76
2023/09/28 07:06:34;;;;;;;22.33;16.02;;;;;;;17.16;100.00;100601.91;4972101;28;20528;-76
2023/09/28 07:09:03;;;;;;;28.92;16.95;;;;;;;17.34;100.00;100602.41;4993522;28;20102;-76
2023/09/28 07:11:34;;;;;;;28.88;22.50;;;;;;;17.42;100.00;100612.59;5011115;28;20038;-76
2023/09/28 07:14:02;;;;;;;29.70;22.20;;;;;;;17.53;100.00;100610.84;4948806;28;20133;-77
2023/09/28 07:16:31;;;;;;;26.88;22.48;;;;;;;17.71;100.00;100607.81;4974975;28;20358;-77
2023/09/28 07:19:03;;;;;;;29.88;22.70;;;;;;;17.50;100.00;100578.06;4981104;28;20687;-77
2023/09/28 07:21:33;;;;;;;26.55;21.13;;;;;;;17.41;100.00;100544.78;4973086;28;20072;-79
2023/09/28 07:24:04;;;;;;;26.27;20.95;;;;;;;17.94;100.00;100615.03;4979288;28;20511;-78
2023/09/28 07:26:48;;;;;;;28.80;20.88;;;;;;;18.14;100.00;100617.06;4987643;28;20049;-76
2023/09/28 07:29:16;;;;;;;26.45;19.45;;;;;;;18.35;100.00;100628.00;4953059;28;20050;-77
2023/09/28 07:31:45;;;;;;;22.77;18.08;;;;;;;18.40;100.00;100609.75;4977972;28;20042;-77
2023/09/28 07:34:14;;;;;;;21.63;17.83;;;;;;;18.56;100.00;100636.25;4967863;28;20080;-77
2023/09/28 07:36:45;;;;;;;25.48;18.58;;;;;;;18.61;100.00;100646.66;4994211;28;20057;-78
2023/09/28 07:39:14;;;;;;;26.88;19.42;;;;;;;18.50;100.00;100650.13;4977437;28;20046;-78
2023/09/28 07:41:51;;;;;;;27.10;19.02;;;;;;;18.54;100.00;100652.47;4973348;28;20130;-78
2023/09/28 07:44:21;;;;;;;24.10;18.08;;;;;;;18.49;100.00;100630.50;4975731;28;20124;-76
2023/09/28 07:46:50;;;;;;;27.00;18.50;;;;;;;18.47;100.00;100635.13;4979118;28;20058;-78
2023/09/28 07:49:19;;;;;;;22.98;18.55;;;;;;;18.40;100.00;100633.03;4988313;28;20046;-77
2023/09/28 07:51:52;;;;;;;22.50;16.70;;;;;;;18.44;100.00;100629.97;4989374;28;20125;-76
2023/09/28 07:54:24;;;;;;;20.20;15.30;;;;;;;18.66;100.00;100629.25;4959260;28;20073;-77
2023/09/28 07:56:55;;;;;;;17.77;13.98;;;;;;;18.96;100.00;100623.31;4981798;28;20100;-77
2023/09/28 07:59:23;;;;;;;20.17;13.88;;;;;;;19.17;100.00;100624.31;4970439;28;20053;-78
2023/09/28 08:01:54;;;;;;;19.63;14.80;;;;;;;19.11;100.00;100640.91;4968259;28;20125;-79
2023/09/28 08:04:22;;;;;;;18.63;14.23;;;;;;;18.99;100.00;100635.66;4999931;28;20038;-79
2023/09/28 08:06:51;;;;;;;15.95;13.43;;;;;;;18.97;100.00;100642.97;4977996;28;20142;-77
2023/09/28 08:09:23;;;;;;;17.65;12.93;;;;;;;19.12;100.00;100647.97;4973961;28;20499;-77
2023/09/28 08:11:55;;;;;;;16.58;14.07;;;;;;;19.02;100.00;100649.69;4988887;28;20168;-77
2023/09/28 08:14:23;;;;;;;16.73;14.38;;;;;;;18.98;100.00;100642.00;4988485;28;20067;-76
2023/09/28 08:16:54;;;;;;;17.15;13.85;;;;;;;18.89;100.00;100646.22;4978168;28;20064;-79
2023/09/28 08:19:23;;;;;;;17.45;13.95;;;;;;;18.81;100.00;100645.97;4977042;28;20053;-78
2023/09/28 08:21:53;;;;;;;16.65;13.80;;;;;;;18.84;100.00;100651.13;4959372;28;20592;-78
2023/09/28 08:24:21;;;;;;;19.23;14.15;;;;;;;18.81;100.00;100645.97;4966059;28;20495;-77
2023/09/28 08:26:50;;;;;;;18.90;14.60;;;;;;;18.73;100.00;100651.91;4976873;28;20070;-77
2023/09/28 08:29:20;;;;;;;17.10;14.07;;;;;;;18.69;100.00;100649.59;4977117;28;20069;-78
2023/09/28 08:31:49;;;;;;;16.77;11.57;;;;;;;18.79;100.00;100653.28;4954368;28;20541;-76
2023/09/28 08:34:20;;;;;;;18.50;14.68;;;;;;;18.83;100.00;100649.41;4967033;28;20556;-76
2023/09/28 08:37:05;;;;;;;16.58;13.55;;;;;;;18.87;100.00;100650.88;4979465;28;20052;-77
2023/09/28 08:39:33;;;;;;;18.73;13.63;;;;;;;19.04;100.00;100649.56;4994220;28;20034;-77
2023/09/28 08:42:03;;;;;;;13.32;11.93;;;;;;;19.18;100.00;100642.16;4960256;28;20514;-78
2023/09/28 08:44:35;;;;;;;15.23;12.45;;;;;;;19.37;100.00;100640.66;4967608;28;20046;-78
2023/09/28 08:47:11;;;;;;;15.02;13.27;;;;;;;19.52;100.00;100650.22;4976584;28;20042;-77
2023/09/28 08:49:39;;;;;;;21.15;13.55;;;;;;;19.45;100.00;100649.84;4993203;28;20047;-77
2023/09/28 08:52:16;;;;;;;13.15;11.30;;;;;;;19.39;100.00;100649.44;4974708;28;20060;-76
2023/09/28 08:54:48;;;;;;;17.67;13.57;;;;;;;19.50;100.00;100634.25;4996574;28;20046;-77
2023/09/28 08:57:17;;;;;;;18.67;14.35;;;;;;;19.67;100.00;100643.63;4989784;28;20120;-78
2023/09/28 08:59:48;;;;;;;15.23;12.45;;;;;;;19.79;100.00;100631.88;4991312;28;20031;-79
2023/09/28 09:02:17;;;;;;;16.50;12.82;;;;;;;20.02;100.00;100643.41;4971805;28;20121;-78
2023/09/28 09:04:47;;;;;;;16.43;12.60;;;;;;;20.18;100.00;100651.94;4965396;28;20562;-77
2023/09/28 09:07:17;;;;;;;15.63;10.77;;;;;;;20.31;100.00;100654.44;4986412;28;20141;-77
2023/09/28 09:09:50;;;;;;;14.32;11.57;;;;;;;20.36;100.00;100659.44;4975173;28;20069;-77
2023/09/28 09:12:21;;;;;;;14.85;11.35;;;;;;;20.44;100.00;100671.31;4989585;28;20136;-77
2023/09/28 09:14:52;;;;;;;12.68;10.60;;;;;;;20.49;100.00;100669.06;4976332;28;20042;-77
2023/09/28 09:17:20;;;;;;;14.40;10.38;;;;;;;20.53;100.00;100665.16;4986787;28;20039;-76
2023/09/28 09:19:49;;;;;;;13.20;9.57;;;;;;;20.67;100.00;100662.16;4982861;28;20051;-75
2023/09/28 09:22:29;;;;;;;17.60;9.50;;;;;;;20.79;100.00;100662.06;4976713;28;20412;-75
2023/09/28 09:25:16;;;;;;;13.00;10.25;;;;;;;20.92;100.00;100666.31;4976375;28;20027;-75
2023/09/28 09:27:45;;;;;;;12.30;9.32;;;;;;;21.01;100.00;100660.13;4978243;28;20581;-75
2023/09/28 09:30:15;;;;;;;12.73;10.18;;;;;;;21.10;100.00;100645.00;4978562;28;20418;-75
2023/09/28 09:32:44;;;;;;;12.75;9.98;;;;;;;21.16;100.00;100641.78;4988369;28;20080;-73
2023/09/28 09:35:12;;;;;;;12.00;9.60;;;;;;;21.19;100.00;100633.47;4959871;28;20183;-77
2023/09/28 09:37:43;;;;;;;9.73;7.65;;;;;;;21.04;100.00;100637.47;4986904;28;20050;-75
2023/09/28 09:40:15;;;;;;;8.90;6.82;;;;;;;21.08;100.00;100633.53;4969574;28;20051;-76
2023/09/28 09:42:44;;;;;;;11.07;8.52;;;;;;;21.19;100.00;100635.28;4970913;28;20455;-74
2023/09/28 09:45:12;;;;;;;10.63;8.23;;;;;;;21.29;100.00;100636.19;4978210;28;20078;-74
2023/09/28 09:47:48;;;;;;;11.15;9.32;;;;;;;21.38;100.00;100639.94;4953279;28;20042;-74
2023/09/28 09:50:19;;;;;;;15.50;8.80;;;;;;;21.29;100.00;100637.06;4984565;28;20090;-74
2023/09/28 09:52:47;;;;;;;13.15;9.15;;;;;;;21.26;100.00;100637.31;4971141;28;20030;-77
2023/09/28 09:55:17;;;;;;;12.20;8.13;;;;;;;21.35;100.00;100650.00;4981365;28;20476;-77
2023/09/28 09:57:47;;;;;;;12.80;9.10;;;;;;;21.42;100.00;100644.03;4978548;28;20504;-78
2023/09/28 10:00:22;;;;;;;12.75;8.20;;;;;;;21.58;100.00;100647.94;4956976;28;20039;-77
2023/09/28 10:02:55;;;;;;;9.93;8.27;;;;;;;21.65;100.00;100624.84;4984464;28;20046;-77
2023/09/28 10:05:26;;;;;;;9.93;7.97;;;;;;;21.78;100.00;100634.53;4974413;28;20051;-78
2023/09/28 10:07:57;;;;;;;14.88;9.32;;;;;;;21.95;100.00;100629.31;4985585;28;20043;-78
2023/09/28 10:10:27;;;;;;;11.98;8.20;;;;;;;21.85;100.00;100638.41;4987026;28;20077;-78
2023/09/28 10:12:56;;;;;;;9.40;7.60;;;;;;;21.79;100.00;100630.84;4970587;28;20130;-78
2023/09/28 10:15:25;;;;;;;11.20;8.35;;;;;;;21.94;100.00;100630.31;4987613;28;20047;-77
2023/09/28 10:17:55;;;;;;;9.27;7.40;;;;;;;22.00;100.00;100634.34;4993410;28;20046;-76
2023/09/28 10:20:23;;;;;;;;;;;;;;;22.11;100.00;100639.59;4987659;28;20117;-76
2023/09/28 10:22:52;;;;;;;9.20;6.85;;;;;;;22.32;100.00;100634.94;4958872;28;19941;-76
2023/09/28 10:25:20;;;;;;;9.07;6.30;;;;;;;22.50;100.00;100635.09;4986238;28;20065;-78
2023/09/28 10:27:48;;;;;;;7.95;6.28;;;;;;;22.70;100.00;100636.75;4979971;28;20132;-77
2023/09/28 10:30:20;;;;;;;9.45;7.97;;;;;;;22.81;97.09;100626.84;4974043;28;20104;-79
2023/09/28 10:32:52;;;;;;;8.65;7.20;;;;;;;22.78;92.57;100613.63;4986748;28;20526;-77
2023/09/28 10:35:30;;;;;;;9.00;7.55;;;;;;;22.94;92.79;100619.28;4987781;28;20097;-78
2023/09/28 10:38:20;;;;;;;9.23;6.50;;;;;;;23.06;93.93;100626.22;4976162;28;20046;-78
2023/09/28 10:41:03;;;;;;;7.25;5.78;;;;;;;23.20;93.83;100623.03;4993840;28;20042;-77
2023/09/28 10:43:34;;;;;;;7.03;5.32;;;;;;;23.21;93.27;100604.97;4990633;28;20050;-77
2023/09/28 10:46:03;;;;;;;6.85;5.28;;;;;;;23.40;92.07;100613.84;4986723;28;20054;-79
2023/09/28 10:48:40;;;;;;;7.35;4.97;;;;;;;23.34;86.08;100614.44;4993571;28;20058;-77
2023/09/28 10:51:12;;;;;;;5.78;4.60;;;;;;;23.48;87.60;100625.75;4989719;28;20454;-78
2023/09/28 10:53:41;;;;;;;6.30;5.15;;;;;;;23.37;83.08;100619.56;4983081;28;20039;-77
2023/09/28 10:56:12;;;;;;;9.00;5.93;;;;;;;23.19;86.97;100617.78;4965408;28;22324;-78
2023/09/28 10:58:42;;;;;;;8.85;5.80;;;;;;;23.11;86.48;100618.53;4993115;28;20046;-77
2023/09/28 11:01:12;;;;;;;8.35;5.38;;;;;;;23.18;87.84;100626.88;4972662;28;20049;-77
2023/09/28 11:03:41;;;;;;;8.15;4.90;;;;;;;23.24;89.22;100635.25;4987384;28;20053;-77
2023/09/28 11:06:11;;;;;;;8.43;5.20;;;;;;;23.38;87.46;100632.06;4964020;28;20080;-76
2023/09/28 11:08:40;;;;;;;6.15;4.72;;;;;;;23.64;88.17;100629.56;4960584;28;20054;-77
2023/09/28 11:11:10;;;;;;;8.45;5.35;;;;;;;23.76;84.26;100620.25;4973074;28;20312;-77
2023/09/28 11:13:39;;;;;;;9.75;5.75;;;;;;;23.95;83.61;100619.25;4970221;28;20026;-75
2023/09/28 11:16:09;;;;;;;5.53;4.60;;;;;;;24.20;81.85;100617.69;4981113;28;20439;-75
2023/09/28 11:18:38;;;;;;;7.07;5.15;;;;;;;24.37;79.34;100613.31;4987884;28;20126;-76
2023/09/28 11:21:08;;;;;;;8.65;5.07;;;;;;;24.28;77.54;100609.66;4990376;28;20030;-76